Time;durP1;ratioP1;P1;durP2;ratioP2;P2;SDS_P1;SDS_P2;PMS_P1;PMS_P2;Temp;Humidity;BMP_temperature;BMP_pressure;BME280_temperature;BME280_humidity;BME280_pressure;Samples;Min_cycle;Max_cycle;Signal;HPM_P1;HPM_P2
2022/07/04 00:00:23;;;;;;;0.40;0.20;;;20.70;99.90;;;;;;5017699;28;20403;-70
2022/07/04 00:02:50;;;;;;;0.40;0.20;;;20.70;99.90;;;;;;5015167;28;20443;-70
2022/07/04 00:05:17;;;;;;;0.40;0.30;;;20.70;99.90;;;;;;5010923;28;20408;-70
2022/07/04 00:07:45;;;;;;;0.40;0.30;;;20.70;99.90;;;;;;5026839;28;20395;-70
2022/07/04 00:10:13;;;;;;;0.40;0.20;;;20.70;99.90;;;;;;5024800;28;20387;-70
2022/07/04 00:12:39;;;;;;;0.60;0.60;;;20.60;99.90;;;;;;5031530;28;20382;-70
2022/07/04 00:15:06;;;;;;;0.40;0.30;;;20.60;99.90;;;;;;5025358;28;20408;-70
2022/07/04 00:17:32;;;;;;;0.40;0.30;;;20.60;99.90;;;;;;5014476;28;20637;-70
2022/07/04 00:19:58;;;;;;;0.40;0.30;;;20.60;99.90;;;;;;5018877;28;20476;-70
2022/07/04 00:22:23;;;;;;;0.40;0.20;;;20.70;99.90;;;;;;5017796;28;20402;-70
2022/07/04 00:24:49;;;;;;;0.40;0.30;;;20.60;99.90;;;;;;5030078;28;20394;-70
2022/07/04 00:27:15;;;;;;;0.90;0.80;;;20.50;99.90;;;;;;5026914;28;20404;-71
2022/07/04 00:29:41;;;;;;;0.40;0.30;;;20.50;99.90;;;;;;5018883;28;20889;-70
2022/07/04 00:32:07;;;;;;;0.40;0.30;;;20.40;99.90;;;;;;5017079;28;20399;-70
2022/07/04 00:34:33;;;;;;;0.40;0.20;;;20.40;99.90;;;;;;5029022;28;21080;-71
2022/07/04 00:36:59;;;;;;;0.40;0.20;;;20.50;99.90;;;;;;5011650;28;20498;-70
2022/07/04 00:39:24;;;;;;;0.40;0.20;;;20.60;99.90;;;;;;5030202;28;20504;-70
2022/07/04 00:41:50;;;;;;;0.40;0.30;;;20.70;99.90;;;;;;5014389;28;20471;-70
2022/07/04 00:44:16;;;;;;;0.40;0.30;;;20.60;99.90;;;;;;5017941;28;20389;-70
2022/07/04 00:46:43;;;;;;;0.40;0.20;;;20.50;99.90;;;;;;5027156;28;20401;-70
2022/07/04 00:49:10;;;;;;;0.40;0.20;;;20.50;99.90;;;;;;5019431;28;20930;-70
2022/07/04 00:51:38;;;;;;;0.40;0.20;;;20.50;99.90;;;;;;5021249;28;20379;-70
2022/07/04 00:54:05;;;;;;;0.40;0.20;;;20.50;99.90;;;;;;5026458;28;20442;-71
2022/07/04 00:56:31;;;;;;;0.40;0.30;;;20.40;99.90;;;;;;5030010;28;20423;-70
2022/07/04 00:58:58;;;;;;;0.40;0.30;;;20.40;99.90;;;;;;5014274;28;20459;-70
2022/07/04 01:01:25;;;;;;;0.40;0.20;;;20.50;99.90;;;;;;5021967;28;20402;-70
2022/07/04 01:03:51;;;;;;;0.40;0.30;;;20.50;99.90;;;;;;5016606;28;20451;-71
2022/07/04 01:06:19;;;;;;;0.40;0.20;;;20.50;99.90;;;;;;5022547;28;20834;-70
2022/07/04 01:08:45;;;;;;;0.40;0.30;;;20.50;99.90;;;;;;5023338;28;20389;-71
2022/07/04 01:11:12;;;;;;;0.40;0.20;;;20.50;99.90;;;;;;5023576;28;20381;-70
2022/07/04 01:13:38;;;;;;;0.40;0.20;;;20.40;99.90;;;;;;5013044;28;20857;-71
2022/07/04 01:16:04;;;;;;;0.40;0.30;;;20.50;99.90;;;;;;5030165;28;20876;-70
2022/07/04 01:18:31;;;;;;;0.40;0.30;;;20.40;99.90;;;;;;5032428;28;20387;-70
2022/07/04 01:20:56;;;;;;;0.40;0.30;;;20.50;99.90;;;;;;5033667;28;20394;-70
2022/07/04 01:23:22;;;;;;;0.40;0.20;;;20.50;99.90;;;;;;5026657;28;20404;-70
2022/07/04 01:25:49;;;;;;;0.40;0.20;;;20.40;99.90;;;;;;5000530;28;20492;-70
2022/07/04 01:28:16;;;;;;;0.40;0.20;;;20.30;99.90;;;;;;5019712;28;20416;-70
2022/07/04 01:30:41;;;;;;;0.70;0.70;;;20.30;99.90;;;;;;5031422;28;20953;-70
2022/07/04 01:33:07;;;;;;;0.40;0.30;;;20.30;99.90;;;;;;5033291;28;20475;-70
2022/07/04 01:35:33;;;;;;;0.40;0.20;;;20.20;99.90;;;;;;5022404;28;20898;-70
2022/07/04 01:37:59;;;;;;;0.40;0.20;;;20.20;99.90;;;;;;4996487;28;20758;-70
2022/07/04 01:40:24;;;;;;;0.43;0.33;;;20.20;99.90;;;;;;5013423;28;20412;-70
2022/07/04 01:42:50;;;;;;;0.40;0.30;;;20.30;99.90;;;;;;5032095;28;20473;-70
2022/07/04 01:45:16;;;;;;;0.40;0.20;;;20.30;99.90;;;;;;5033284;28;20782;-70
2022/07/04 01:47:42;;;;;;;0.40;0.20;;;20.30;99.90;;;;;;5022706;28;20436;-70
2022/07/04 01:50:12;;;;;;;0.40;0.30;;;20.20;99.90;;;;;;5026882;28;20449;-70
2022/07/04 01:52:38;;;;;;;0.40;0.30;;;20.20;99.90;;;;;;5023474;28;20392;-70
2022/07/04 01:55:04;;;;;;;0.40;0.30;;;20.20;99.90;;;;;;5014663;28;20453;-70
2022/07/04 01:57:30;;;;;;;0.40;0.20;;;20.20;99.90;;;;;;5019344;28;20471;-70
2022/07/04 02:02:39;;;;;;;0.40;0.20;;;20.10;99.90;;;;;;5014316;28;20439;-70
2022/07/04 02:05:05;;;;;;;0.40;0.20;;;20.00;99.90;;;;;;5013724;28;20401;-70
2022/07/04 02:07:31;;;;;;;0.40;0.30;;;20.10;99.90;;;;;;5022979;28;20516;-70
2022/07/04 02:09:57;;;;;;;0.60;0.60;;;20.00;99.90;;;;;;5015087;28;20866;-70
2022/07/04 02:15:07;;;;;;;0.40;0.20;;;20.00;99.90;;;;;;5031875;28;20921;-70
2022/07/04 02:17:34;;;;;;;0.40;0.22;;;20.00;99.90;;;;;;5030780;28;20772;-70
2022/07/04 02:20:00;;;;;;;0.40;0.20;;;19.90;99.90;;;;;;5029423;28;20523;-70
2022/07/04 02:22:25;;;;;;;0.40;0.30;;;19.90;99.90;;;;;;5012087;28;20400;-70
2022/07/04 02:24:51;;;;;;;0.40;0.20;;;19.90;99.90;;;;;;5012831;28;20392;-70
2022/07/04 02:27:16;;;;;;;0.40;0.20;;;19.90;99.90;;;;;;5028569;28;20406;-70
2022/07/04 02:29:42;;;;;;;0.60;0.60;;;20.10;99.90;;;;;;5031260;28;20414;-70
2022/07/04 02:32:08;;;;;;;0.40;0.30;;;20.40;99.90;;;;;;5032096;28;20399;-70
2022/07/04 02:34:34;;;;;;;0.40;0.20;;;20.60;99.90;;;;;;5023115;28;20544;-70
2022/07/04 02:36:59;;;;;;;0.40;0.20;;;20.50;99.90;;;;;;5021275;28;20897;-70
2022/07/04 02:39:25;;;;;;;0.40;0.40;;;20.40;99.90;;;;;;5011533;28;20381;-71
2022/07/04 02:41:51;;;;;;;0.40;0.30;;;20.30;99.90;;;;;;5012312;28;20380;-70
2022/07/04 02:44:17;;;;;;;0.40;0.20;;;20.30;99.90;;;;;;5013024;28;20397;-70
2022/07/04 02:46:42;;;;;;;0.40;0.20;;;20.20;99.90;;;;;;5011720;28;20393;-70
2022/07/04 02:49:08;;;;;;;0.40;0.30;;;20.20;99.90;;;;;;5024785;28;20400;-70
2022/07/04 02:51:34;;;;;;;0.40;0.30;;;20.20;99.90;;;;;;5020703;28;20395;-70
2022/07/04 02:54:00;;;;;;;0.40;0.20;;;20.10;99.90;;;;;;5031539;28;20792;-70
2022/07/04 02:56:26;;;;;;;0.40;0.20;;;20.20;99.90;;;;;;5030412;28;20431;-70
2022/07/04 02:58:52;;;;;;;0.40;0.20;;;20.30;99.90;;;;;;5013019;28;20827;-70
2022/07/04 03:01:19;;;;;;;1.90;0.50;;;20.20;99.90;;;;;;5028953;28;20505;-70
2022/07/04 03:03:45;;;;;;;0.40;0.20;;;20.20;99.90;;;;;;5011310;28;20393;-70
2022/07/04 03:06:11;;;;;;;0.50;0.40;;;20.40;99.90;;;;;;5012165;28;20397;-70
2022/07/04 03:08:37;;;;;;;0.40;0.30;;;20.40;99.90;;;;;;5021665;28;20413;-70
2022/07/04 03:11:03;;;;;;;0.40;0.30;;;20.40;99.90;;;;;;5031538;28;20419;-70
2022/07/04 03:13:29;;;;;;;0.40;0.20;;;20.40;99.90;;;;;;5021436;28;20397;-70
2022/07/04 03:15:55;;;;;;;0.80;0.80;;;20.50;99.90;;;;;;5029038;28;20417;-70
2022/07/04 03:18:21;;;;;;;0.40;0.20;;;20.50;99.90;;;;;;5026304;28;20395;-70
2022/07/04 03:20:46;;;;;;;0.40;0.20;;;20.40;99.90;;;;;;5018414;28;20455;-70
2022/07/04 03:23:12;;;;;;;0.40;0.20;;;20.40;99.90;;;;;;5014696;28;20393;-71
2022/07/04 03:25:39;;;;;;;0.40;0.20;;;20.30;99.90;;;;;;5026630;28;20390;-71
2022/07/04 03:28:05;;;;;;;0.40;0.40;;;20.50;99.90;;;;;;5027952;28;20404;-70
2022/07/04 03:30:32;;;;;;;0.40;0.20;;;20.60;99.90;;;;;;5010674;28;20392;-71
2022/07/04 03:32:58;;;;;;;0.90;0.90;;;20.60;99.90;;;;;;5011197;28;20385;-70
2022/07/04 03:35:24;;;;;;;0.40;0.30;;;20.40;99.90;;;;;;5014695;28;20411;-70
2022/07/04 03:37:50;;;;;;;0.40;0.20;;;20.20;99.90;;;;;;5024773;28;20391;-71
2022/07/04 03:40:16;;;;;;;0.40;0.20;;;19.90;99.90;;;;;;5010746;28;20444;-71
2022/07/04 03:42:42;;;;;;;0.90;0.90;;;19.90;99.90;;;;;;5017717;28;20762;-70
2022/07/04 03:45:08;;;;;;;0.50;0.30;;;19.90;99.90;;;;;;5030976;28;20391;-70
2022/07/04 03:47:34;;;;;;;0.50;0.30;;;19.90;99.90;;;;;;5029267;28;20407;-69
2022/07/04 03:50:00;;;;;;;0.40;0.20;;;20.00;99.90;;;;;;5026970;28;20394;-70
2022/07/04 03:52:26;;;;;;;0.40;0.30;;;20.00;99.90;;;;;;5012173;28;20389;-70
2022/07/04 03:54:51;;;;;;;0.40;0.30;;;20.10;99.90;;;;;;5011533;28;20409;-70
2022/07/04 03:57:17;;;;;;;0.40;0.20;;;20.20;99.90;;;;;;5020924;28;20483;-70
2022/07/04 03:59:42;;;;;;;0.40;0.20;;;20.20;99.90;;;;;;5029290;28;20466;-70
2022/07/04 04:02:08;;;;;;;0.40;0.20;;;20.30;99.90;;;;;;5020184;28;20401;-70
2022/07/04 04:07:18;;;;;;;0.40;0.20;;;20.10;99.90;;;;;;5017417;28;20505;-70
2022/07/04 04:09:44;;;;;;;0.40;0.20;;;19.80;99.90;;;;;;5016661;28;20399;-70
2022/07/04 04:12:10;;;;;;;0.40;0.30;;;19.80;99.90;;;;;;5019930;28;20882;-70
2022/07/04 04:14:35;;;;;;;0.40;0.30;;;20.10;99.90;;;;;;5019574;28;20403;-70
2022/07/04 04:17:01;;;;;;;0.70;0.70;;;20.20;99.90;;;;;;5017854;28;20404;-69
2022/07/04 04:19:27;;;;;;;0.40;0.20;;;20.20;99.90;;;;;;5020730;28;20458;-70
2022/07/04 04:21:52;;;;;;;0.40;0.20;;;20.20;99.90;;;;;;5022154;28;20403;-70
2022/07/04 04:24:18;;;;;;;0.40;0.30;;;20.20;99.90;;;;;;5021567;28;20399;-70
2022/07/04 04:26:44;;;;;;;0.40;0.30;;;20.20;99.90;;;;;;5018873;28;20399;-70
2022/07/04 04:29:10;;;;;;;0.40;0.30;;;20.10;99.90;;;;;;5018517;28;20406;-70
2022/07/04 04:31:36;;;;;;;0.40;0.30;;;20.00;99.90;;;;;;5016297;28;20721;-71
2022/07/04 04:34:01;;;;;;;0.40;0.30;;;20.10;99.90;;;;;;5020924;28;20385;-70
2022/07/04 04:36:27;;;;;;;0.40;0.30;;;20.10;99.90;;;;;;5002005;28;20423;-70
2022/07/04 04:38:53;;;;;;;0.40;0.30;;;20.10;99.90;;;;;;5021450;28;20756;-70
2022/07/04 04:41:19;;;;;;;0.45;0.38;;;20.00;99.90;;;;;;5021237;28;20401;-70
2022/07/04 04:43:45;;;;;;;0.40;0.30;;;19.90;99.90;;;;;;5022568;28;20388;-70
2022/07/04 04:46:11;;;;;;;0.40;0.30;;;19.90;99.90;;;;;;5019123;28;20793;-69
2022/07/04 04:48:37;;;;;;;0.40;0.30;;;19.90;99.90;;;;;;5017891;28;20387;-70
2022/07/04 04:51:02;;;;;;;0.40;0.30;;;20.00;99.90;;;;;;5015747;28;20484;-69
2022/07/04 04:53:29;;;;;;;0.40;0.30;;;20.00;99.90;;;;;;5016538;28;20385;-69
2022/07/04 04:55:55;;;;;;;0.40;0.20;;;20.00;99.90;;;;;;5020031;28;20416;-70
2022/07/04 04:58:21;;;;;;;0.40;0.30;;;20.00;99.90;;;;;;5018315;28;20480;-70
2022/07/04 05:00:49;;;;;;;0.40;0.20;;;20.00;99.90;;;;;;5023501;28;20418;-69
2022/07/04 05:03:15;;;;;;;0.40;0.30;;;20.00;99.90;;;;;;5025717;28;20383;-70
2022/07/04 05:05:41;;;;;;;0.40;0.30;;;19.90;99.90;;;;;;5024115;28;20517;-69
2022/07/04 05:08:07;;;;;;;0.40;0.20;;;19.90;99.90;;;;;;5024800;28;20565;-70
2022/07/04 05:10:33;;;;;;;0.40;0.30;;;19.90;99.90;;;;;;5019365;28;20396;-70
2022/07/04 05:12:58;;;;;;;0.40;0.30;;;19.90;99.90;;;;;;5024774;28;20391;-70
2022/07/04 05:15:24;;;;;;;0.40;0.30;;;19.80;99.90;;;;;;5022328;28;20416;-70
2022/07/04 05:17:50;;;;;;;0.40;0.20;;;19.70;99.90;;;;;;5023516;28;20383;-70
2022/07/04 05:20:16;;;;;;;0.40;0.30;;;19.80;99.90;;;;;;5022128;28;20426;-69
2022/07/04 05:22:41;;;;;;;0.50;0.43;;;19.80;99.90;;;;;;5025876;28;20941;-70
2022/07/04 05:25:08;;;;;;;0.40;0.20;;;20.00;99.90;;;;;;5021539;28;20482;-69
2022/07/04 05:27:34;;;;;;;0.70;0.70;;;20.00;99.90;;;;;;5022190;28;20411;-70
2022/07/04 05:30:00;;;;;;;0.40;0.20;;;20.00;99.90;;;;;;5025156;28;20873;-69
2022/07/04 05:32:26;;;;;;;0.40;0.40;;;20.00;99.90;;;;;;5021972;28;20424;-70
2022/07/04 05:34:53;;;;;;;0.40;0.20;;;19.80;99.90;;;;;;5027080;28;20502;-69
2022/07/04 05:37:18;;;;;;;0.40;0.20;;;19.80;99.90;;;;;;5022789;28;20391;-70
2022/07/04 05:39:44;;;;;;;0.40;0.20;;;19.80;99.90;;;;;;5026422;28;20924;-70
2022/07/04 05:42:10;;;;;;;0.40;0.20;;;19.70;99.90;;;;;;5030224;28;20432;-69
2022/07/04 05:44:36;;;;;;;0.40;0.20;;;19.70;99.90;;;;;;5032263;28;20870;-70
2022/07/04 05:47:02;;;;;;;0.40;0.25;;;19.70;99.90;;;;;;5015026;28;20389;-70
2022/07/04 05:49:28;;;;;;;0.40;0.20;;;19.70;99.90;;;;;;5013313;28;20913;-70
2022/07/04 05:51:54;;;;;;;0.40;0.20;;;19.60;99.90;;;;;;5019356;28;20399;-70
2022/07/04 05:54:19;;;;;;;0.40;0.30;;;19.50;99.90;;;;;;5029117;28;20698;-70
2022/07/04 05:56:45;;;;;;;0.40;0.20;;;19.70;99.90;;;;;;5030758;28;20434;-70
2022/07/04 05:59:10;;;;;;;0.40;0.20;;;19.70;99.90;;;;;;5032086;28;20399;-70
2022/07/04 06:01:37;;;;;;;0.40;0.30;;;19.70;99.90;;;;;;5030009;28;20414;-70
2022/07/04 06:04:04;;;;;;;0.40;0.30;;;19.70;99.90;;;;;;5029356;28;20466;-70
2022/07/04 06:06:30;;;;;;;0.40;0.20;;;19.70;99.90;;;;;;5031486;28;20403;-70
2022/07/04 06:08:56;;;;;;;0.40;0.20;;;19.70;99.90;;;;;;5031235;28;21154;-70
2022/07/04 06:11:22;;;;;;;0.40;0.20;;;19.70;99.90;;;;;;5032013;28;20395;-70
2022/07/04 06:13:48;;;;;;;0.40;0.20;;;19.90;99.90;;;;;;5029997;28;20824;-70
2022/07/04 06:16:14;;;;;;;0.40;0.20;;;19.90;99.90;;;;;;5012778;28;20483;-70
2022/07/04 06:18:40;;;;;;;0.40;0.30;;;20.00;99.90;;;;;;5011779;28;20822;-70
2022/07/04 06:21:06;;;;;;;0.40;0.30;;;20.10;99.90;;;;;;5020132;28;20402;-70
2022/07/04 06:23:32;;;;;;;0.40;0.30;;;20.10;99.90;;;;;;5032312;28;20380;-69
2022/07/04 06:25:58;;;;;;;0.40;0.30;;;20.10;99.90;;;;;;5029237;28;20402;-69
2022/07/04 06:28:24;;;;;;;0.60;0.60;;;20.10;99.90;;;;;;5028182;28;20501;-69
2022/07/04 06:30:49;;;;;;;0.40;0.20;;;20.20;99.90;;;;;;5021987;28;20893;-70
2022/07/04 06:33:15;;;;;;;0.40;0.20;;;20.30;99.90;;;;;;5012625;28;20439;-70
2022/07/04 06:35:56;;;;;;;0.40;0.20;;;20.40;99.90;;;;;;5012693;28;20417;-70
2022/07/04 06:38:27;;;;;;;0.40;0.20;;;20.40;99.90;;;;;;5002099;28;20404;-69
2022/07/04 06:40:55;;;;;;;0.40;0.30;;;20.30;99.90;;;;;;5017934;28;20488;-69
2022/07/04 06:43:21;;;;;;;0.85;0.57;;;20.30;99.90;;;;;;5025517;28;20406;-69
2022/07/04 06:45:47;;;;;;;0.90;0.80;;;20.40;99.90;;;;;;5025697;28;20406;-69
2022/07/04 06:48:13;;;;;;;1.20;1.20;;;20.50;99.90;;;;;;5020515;28;20445;-68
2022/07/04 06:50:39;;;;;;;0.40;0.40;;;20.60;99.90;;;;;;5024318;28;20397;-69
2022/07/04 06:53:07;;;;;;;1.50;0.90;;;20.70;99.90;;;;;;5018000;28;20396;-69
2022/07/04 06:55:39;;;;;;;0.50;0.40;;;20.60;99.90;;;;;;5017611;28;20585;-69
2022/07/04 06:58:06;;;;;;;0.40;0.30;;;20.50;99.90;;;;;;5012378;28;20416;-69
2022/07/04 07:00:33;;;;;;;0.40;0.20;;;20.60;99.90;;;;;;5028997;28;20399;-69
2022/07/04 07:03:00;;;;;;;0.40;0.20;;;20.70;99.90;;;;;;4999132;28;20564;-69
2022/07/04 07:05:26;;;;;;;0.40;0.30;;;20.60;99.90;;;;;;5023924;28;20397;-68
2022/07/04 07:07:52;;;;;;;0.60;0.60;;;20.70;99.90;;;;;;5023786;28;20388;-69
2022/07/04 07:10:18;;;;;;;0.40;0.30;;;20.70;99.90;;;;;;5030006;28;20534;-68
2022/07/04 07:12:44;;;;;;;0.40;0.20;;;20.70;99.90;;;;;;5030296;28;20926;-69
2022/07/04 07:15:10;;;;;;;0.40;0.20;;;20.70;99.90;;;;;;5026487;28;20430;-68
2022/07/04 07:17:36;;;;;;;0.40;0.30;;;20.90;99.90;;;;;;5011795;28;20393;-68
2022/07/04 07:20:02;;;;;;;0.40;0.20;;;20.80;99.90;;;;;;5024903;28;20394;-69
2022/07/04 07:22:28;;;;;;;0.50;0.40;;;20.80;99.90;;;;;;5030323;28;20389;-69
2022/07/04 07:24:54;;;;;;;0.80;0.80;;;20.70;99.90;;;;;;5030143;28;20393;-68
2022/07/04 07:27:19;;;;;;;0.40;0.30;;;20.70;99.90;;;;;;5029654;28;20449;-68
2022/07/04 07:29:45;;;;;;;0.40;0.30;;;20.70;99.90;;;;;;5016488;28;20398;-68
2022/07/04 07:32:11;;;;;;;0.40;0.20;;;20.70;99.90;;;;;;5030305;28;20379;-68
2022/07/04 07:34:37;;;;;;;0.40;0.20;;;20.70;99.90;;;;;;5030629;28;20454;-68
2022/07/04 07:37:03;;;;;;;0.40;0.20;;;20.60;99.90;;;;;;5030110;28;20434;-69
2022/07/04 07:39:29;;;;;;;0.40;0.20;;;20.50;99.90;;;;;;5025642;28;20400;-68
2022/07/04 07:41:55;;;;;;;0.40;0.30;;;20.60;99.90;;;;;;5019863;28;20868;-69
2022/07/04 07:44:21;;;;;;;0.40;0.20;;;20.60;99.90;;;;;;5022684;28;20908;-69
2022/07/04 07:46:46;;;;;;;0.40;0.30;;;20.60;99.90;;;;;;5010007;28;20373;-69
2022/07/04 07:49:12;;;;;;;0.40;0.20;;;20.70;99.90;;;;;;5011468;28;20420;-69
2022/07/04 07:51:38;;;;;;;0.40;0.40;;;20.80;99.90;;;;;;4991421;28;20443;-68
2022/07/04 07:54:04;;;;;;;0.40;0.30;;;20.90;99.90;;;;;;5025709;28;20383;-69
2022/07/04 07:56:29;;;;;;;0.40;0.20;;;20.90;99.90;;;;;;5024205;28;20427;-69
2022/07/04 07:58:55;;;;;;;0.40;0.30;;;20.80;99.90;;;;;;5029652;28;20875;-69
2022/07/04 08:01:21;;;;;;;0.40;0.20;;;20.80;99.90;;;;;;5021567;28;20879;-69
2022/07/04 08:06:32;;;;;;;0.40;0.30;;;20.70;99.90;;;;;;5009457;28;20487;-69
2022/07/04 08:08:59;;;;;;;0.40;0.20;;;20.60;99.90;;;;;;5027872;28;20476;-68
2022/07/04 08:11:25;;;;;;;0.40;0.20;;;20.60;99.90;;;;;;5024928;28;20395;-69
2022/07/04 08:13:51;;;;;;;0.40;0.30;;;20.60;99.90;;;;;;5010918;28;20433;-69
2022/07/04 08:16:18;;;;;;;0.40;0.30;;;20.70;99.90;;;;;;5012310;28;20412;-69
2022/07/04 08:18:44;;;;;;;0.40;0.20;;;20.80;99.90;;;;;;5009594;28;20401;-70
2022/07/04 08:21:10;;;;;;;0.80;0.70;;;20.80;99.90;;;;;;5017068;28;20479;-70
2022/07/04 08:23:36;;;;;;;0.40;0.20;;;20.90;99.90;;;;;;5015941;28;20401;-69
2022/07/04 08:26:03;;;;;;;0.40;0.20;;;20.80;99.90;;;;;;5023909;28;20481;-71
2022/07/04 08:28:29;;;;;;;0.40;0.30;;;20.70;99.90;;;;;;5017455;28;20383;-69
2022/07/04 08:30:56;;;;;;;0.40;0.20;;;20.70;99.90;;;;;;5022015;28;20966;-70
2022/07/04 08:33:22;;;;;;;0.40;0.30;;;20.60;99.90;;;;;;5023950;28;20416;-69
2022/07/04 08:35:48;;;;;;;0.40;0.20;;;20.60;99.90;;;;;;5013213;28;20412;-70
2022/07/04 08:38:16;;;;;;;0.40;0.30;;;20.80;99.90;;;;;;5027411;28;20392;-69
2022/07/04 08:40:42;;;;;;;0.40;0.30;;;20.80;99.90;;;;;;5019815;28;20782;-70
2022/07/04 08:43:12;;;;;;;0.40;0.20;;;20.90;99.90;;;;;;5027170;28;20393;-69
2022/07/04 08:45:39;;;;;;;0.50;0.50;;;20.80;99.90;;;;;;5019594;28;20434;-70
2022/07/04 08:48:07;;;;;;;0.40;0.20;;;20.90;99.90;;;;;;5017310;28;20450;-69
2022/07/04 08:50:34;;;;;;;0.40;0.25;;;21.00;99.90;;;;;;5019490;28;20797;-70
2022/07/04 08:53:06;;;;;;;0.40;0.30;;;21.10;99.90;;;;;;5018251;28;20415;-70
2022/07/04 08:58:29;;;;;;;0.40;0.20;;;21.10;99.90;;;;;;5013895;28;20416;-69
2022/07/04 09:01:16;;;;;;;0.40;0.30;;;21.20;99.90;;;;;;5015786;28;20406;-70
2022/07/04 09:03:43;;;;;;;0.40;0.20;;;21.10;99.90;;;;;;5023035;28;20861;-72
2022/07/04 09:06:11;;;;;;;0.40;0.25;;;21.30;99.90;;;;;;5033215;28;21081;-72
2022/07/04 09:08:38;;;;;;;0.40;0.30;;;21.30;99.90;;;;;;5018520;28;20392;-72
2022/07/04 09:11:04;;;;;;;0.40;0.20;;;21.50;99.90;;;;;;5004927;28;20496;-72
2022/07/04 09:13:31;;;;;;;0.40;0.30;;;21.50;99.90;;;;;;5016536;28;20387;-72
2022/07/04 09:15:57;;;;;;;0.40;0.20;;;21.50;99.90;;;;;;5020618;28;20912;-73
2022/07/04 09:18:28;;;;;;;0.40;0.30;;;21.60;99.90;;;;;;5032212;28;20399;-73
2022/07/04 09:20:57;;;;;;;0.40;0.20;;;21.50;99.90;;;;;;5023825;28;22234;-72
2022/07/04 09:23:26;;;;;;;0.40;0.20;;;21.60;99.90;;;;;;5012640;28;20397;-72
2022/07/04 09:26:06;;;;;;;0.40;0.30;;;21.60;99.90;;;;;;5017072;28;20385;-73
2022/07/04 09:28:32;;;;;;;0.40;0.40;;;21.90;99.90;;;;;;5020418;28;20383;-72
2022/07/04 09:30:58;;;;;;;0.40;0.20;;;21.90;99.90;;;;;;5020764;28;20388;-74
2022/07/04 09:33:44;;;;;;;0.40;0.30;;;21.90;99.90;;;;;;5015227;28;20407;-74
2022/07/04 09:36:15;;;;;;;0.40;0.20;;;21.90;99.90;;;;;;5014391;28;20417;-74
2022/07/04 09:38:41;;;;;;;0.40;0.30;;;22.00;99.90;;;;;;5028952;28;20405;-72
2022/07/04 09:41:25;;;;;;;0.40;0.30;;;22.10;99.90;;;;;;5032883;28;20391;-73
2022/07/04 09:44:05;;;;;;;0.40;0.28;;;22.30;99.90;;;;;;5031777;28;20473;-72
2022/07/04 09:46:33;;;;;;;0.40;0.20;;;22.40;99.90;;;;;;5027352;28;20415;-71
2022/07/04 09:48:59;;;;;;;0.40;0.30;;;22.50;99.90;;;;;;5013775;28;20438;-71
2022/07/04 09:51:43;;;;;;;0.40;0.30;;;22.80;99.90;;;;;;5016012;28;20391;-72
2022/07/04 09:54:27;;;;;;;0.40;0.20;;;23.10;99.90;;;;;;5013828;28;20424;-72
2022/07/04 09:56:59;;;;;;;0.40;0.30;;;22.90;99.90;;;;;;5011765;28;20952;-72
2022/07/04 09:59:27;;;;;;;0.40;0.30;;;23.20;99.90;;;;;;5023693;28;20421;-73
2022/07/04 10:02:09;;;;;;;0.40;0.30;;;23.30;99.90;;;;;;5017727;28;20418;-72
2022/07/04 10:04:52;;;;;;;0.40;0.20;;;23.10;99.90;;;;;;5032659;28;20782;-72
2022/07/04 10:07:43;;;;;;;0.40;0.30;;;23.40;99.90;;;;;;5021998;28;20398;-72
2022/07/04 10:10:33;;;;;;;1.30;0.60;;;23.40;99.90;;;;;;5028183;28;20408;-72
2022/07/04 10:13:11;;;;;;;0.50;0.40;;;23.40;99.90;;;;;;5015607;28;20407;-72
2022/07/04 10:15:39;;;;;;;0.40;0.30;;;23.30;99.90;;;;;;5007330;28;20767;-71
2022/07/04 10:18:07;;;;;;;0.40;0.30;;;23.20;99.90;;;;;;5011563;28;20385;-71
2022/07/04 10:20:33;;;;;;;0.40;0.20;;;23.30;99.90;;;;;;5012853;28;20405;-71
2022/07/04 10:23:00;;;;;;;0.40;0.30;;;23.40;99.90;;;;;;5012862;28;20405;-72
2022/07/04 10:25:26;;;;;;;0.40;0.30;;;23.50;99.90;;;;;;5012307;28;20503;-72
2022/07/04 10:27:52;;;;;;;0.40;0.20;;;23.30;99.90;;;;;;5011869;28;20412;-71
2022/07/04 10:30:31;;;;;;;0.50;0.50;;;23.50;99.90;;;;;;5012264;28;20401;-71
2022/07/04 10:32:59;;;;;;;0.40;0.20;;;23.50;99.90;;;;;;5025370;28;20492;-72
2022/07/04 10:35:53;;;;;;;0.40;0.30;;;23.60;99.90;;;;;;5023268;28;20768;-70
2022/07/04 10:38:26;;;;;;;0.40;0.40;;;23.80;99.90;;;;;;5030466;28;20421;-71
2022/07/04 10:41:02;;;;;;;0.40;0.30;;;23.70;99.90;;;;;;5011363;28;20381;-72
2022/07/04 10:43:37;;;;;;;0.40;0.20;;;23.70;99.90;;;;;;5012893;28;20472;-71
2022/07/04 10:46:12;;;;;;;0.40;0.30;;;23.80;99.90;;;;;;5011558;28;20403;-72
2022/07/04 10:48:49;;;;;;;0.40;0.20;;;24.10;99.90;;;;;;5011935;28;20911;-71
2022/07/04 10:51:15;;;;;;;0.40;0.30;;;24.00;99.90;;;;;;5022020;28;20395;-72
2022/07/04 10:54:02;;;;;;;0.40;0.30;;;24.30;99.90;;;;;;5014508;28;20459;-72
2022/07/04 10:56:28;;;;;;;0.40;0.30;;;24.20;99.90;;;;;;4994083;28;20845;-72
2022/07/04 10:58:55;;;;;;;0.40;0.30;;;24.00;99.80;;;;;;5011101;28;20389;-71
2022/07/04 11:01:20;;;;;;;0.80;0.80;;;24.30;99.90;;;;;;5013930;28;20475;-72
2022/07/04 11:03:48;;;;;;;0.40;0.30;;;24.40;99.90;;;;;;5019384;28;20500;-73
2022/07/04 11:06:32;;;;;;;0.40;0.30;;;24.50;99.90;;;;;;5026218;28;20413;-71
2022/07/04 11:09:20;;;;;;;0.40;0.20;;;24.40;99.90;;;;;;5013558;28;20479;-74
2022/07/04 11:11:56;;;;;;;0.40;0.20;;;24.60;97.70;;;;;;5025248;28;20485;-73
2022/07/04 11:14:39;;;;;;;0.40;0.30;;;24.70;99.90;;;;;;5011887;28;21963;-73
2022/07/04 11:17:11;;;;;;;1.10;1.00;;;25.00;99.00;;;;;;5016628;28;21107;-72
2022/07/04 11:19:37;;;;;;;0.40;0.20;;;25.30;97.80;;;;;;5016992;28;20480;-71
2022/07/04 11:22:05;;;;;;;0.40;0.20;;;25.40;94.70;;;;;;5017425;28;20392;-71
2022/07/04 11:24:32;;;;;;;0.40;0.30;;;25.10;96.10;;;;;;5018333;28;20393;-71
2022/07/04 11:26:58;;;;;;;0.40;0.20;;;25.00;99.40;;;;;;5021048;28;20570;-71
2022/07/04 11:29:24;;;;;;;0.40;0.30;;;25.40;95.20;;;;;;5020579;28;20386;-73
2022/07/04 11:31:51;;;;;;;0.40;0.30;;;25.90;97.20;;;;;;5017812;28;20791;-73
2022/07/04 11:34:18;;;;;;;0.40;0.30;;;25.90;94.20;;;;;;5019438;28;20387;-71
2022/07/04 11:36:46;;;;;;;0.40;0.20;;;26.30;96.60;;;;;;5019172;28;20417;-71
2022/07/04 11:39:14;;;;;;;0.40;0.30;;;26.70;91.60;;;;;;5019852;28;20405;-70
2022/07/04 11:45:05;;;;;;;0.40;0.30;;;27.10;93.70;;;;;;5017226;28;20375;-72
2022/07/04 11:47:36;;;;;;;0.40;0.20;;;27.50;86.40;;;;;;5020077;28;20390;-72
2022/07/04 11:50:05;;;;;;;0.50;0.30;;;28.80;79.40;;;;;;5016423;28;20416;-72
2022/07/04 11:52:40;;;;;;;0.40;0.20;;;28.50;80.90;;;;;;5019357;28;20511;-72
2022/07/04 11:55:08;;;;;;;0.40;0.30;;;27.60;76.70;;;;;;5017706;28;20416;-72
2022/07/04 11:57:39;;;;;;;0.40;0.20;;;26.80;83.40;;;;;;5019133;28;20395;-71
2022/07/04 12:00:04;;;;;;;0.40;0.30;;;26.50;90.30;;;;;;5019383;28;20410;-72
2022/07/04 12:02:32;;;;;;;0.40;0.20;;;26.30;91.10;;;;;;5018457;28;20783;-71
2022/07/04 12:04:59;;;;;;;0.40;0.20;;;26.40;92.90;;;;;;5018203;28;20474;-72
2022/07/04 12:07:27;;;;;;;0.40;0.20;;;26.30;90.10;;;;;;5019055;28;20432;-73
2022/07/04 12:09:54;;;;;;;0.60;0.50;;;26.40;87.60;;;;;;5018258;28;20383;-72
2022/07/04 12:12:21;;;;;;;0.40;0.20;;;26.30;89.60;;;;;;5019509;28;20393;-71
2022/07/04 12:15:06;;;;;;;0.40;0.30;;;26.20;88.40;;;;;;5000153;28;20373;-71
2022/07/04 12:17:37;;;;;;;0.45;0.28;;;26.00;91.40;;;;;;5018984;28;20439;-73
2022/07/04 12:20:03;;;;;;;0.50;0.50;;;25.90;90.70;;;;;;5017415;28;20397;-71
2022/07/04 12:22:32;;;;;;;0.40;0.30;;;25.70;90.90;;;;;;5020150;28;20395;-72
2022/07/04 12:24:59;;;;;;;0.40;0.30;;;25.50;93.10;;;;;;5018620;28;20400;-72
2022/07/04 12:27:26;;;;;;;0.40;0.20;;;25.60;91.80;;;;;;5017915;28;20393;-73
2022/07/04 12:29:53;;;;;;;0.40;0.30;;;25.80;89.50;;;;;;5018448;28;20387;-73
2022/07/04 12:32:20;;;;;;;0.40;0.20;;;25.90;88.70;;;;;;5019885;28;20389;-72
2022/07/04 12:34:46;;;;;;;0.40;0.30;;;26.00;88.70;;;;;;5016557;28;20388;-72
2022/07/04 12:37:13;;;;;;;0.40;0.20;;;25.80;90.60;;;;;;5019307;28;20883;-71
2022/07/04 12:39:43;;;;;;;0.40;0.20;;;25.90;89.10;;;;;;5023611;28;20439;-71
2022/07/04 12:42:11;;;;;;;0.40;0.20;;;25.80;89.50;;;;;;5017017;28;20401;-72
2022/07/04 12:44:38;;;;;;;0.40;0.30;;;25.50;91.20;;;;;;5017219;28;20892;-72
2022/07/04 12:47:05;;;;;;;0.40;0.28;;;25.70;89.40;;;;;;5013360;28;20397;-73
2022/07/04 12:49:32;;;;;;;0.40;0.20;;;25.80;89.20;;;;;;5022608;28;20391;-73
2022/07/04 12:52:14;;;;;;;0.40;0.20;;;25.80;88.00;;;;;;5018435;28;21720;-72
2022/07/04 12:54:40;;;;;;;0.40;0.20;;;25.90;88.60;;;;;;5019272;28;20400;-71
2022/07/04 12:57:09;;;;;;;0.40;0.30;;;25.70;91.80;;;;;;5017757;28;20404;-72
2022/07/04 12:59:36;;;;;;;0.40;0.20;;;25.80;90.20;;;;;;5019493;28;20399;-72
2022/07/04 13:02:02;;;;;;;0.40;0.20;;;25.50;91.90;;;;;;5019543;28;20748;-72
2022/07/04 13:04:28;;;;;;;0.70;0.50;;;25.70;90.60;;;;;;5017941;28;20393;-73
2022/07/04 13:06:54;;;;;;;0.70;0.70;;;25.60;90.90;;;;;;5014626;28;20403;-72